Anzahl Datensätze: 288
min. Temperatur: 0.3 °C
max. Temperatur: 3.3 °C
max. Windgeschwindigkeit: 38.5 km/h
Niederschlagsumme: 18.8 mm
| Datum |
Zeit |
Temp °C |
Feuchte % |
Taupunkt °C |
Luftdruck hPa |
Wind km/h |
Windrichtung |
Strahlung w/m² |
Niederschlag mm |
|---|---|---|---|---|---|---|---|---|---|
| 20.11.2024 | 00:03 | 2.9 | 90 | 1.4 | 997.1 | 0.0 | NNO | 0 | 18.8 |
| 20.11.2024 | 00:09 | 2.8 | 90 | 1.3 | 997.3 | 1.4 | N | 0 | 0.0 |
| 20.11.2024 | 00:12 | 2.8 | 90 | 1.3 | 997.4 | 1.4 | N | 0 | 0.0 |
| 20.11.2024 | 00:18 | 2.8 | 90 | 1.3 | 997.5 | 1.4 | SSW | 0 | 0.0 |
| 20.11.2024 | 00:24 | 2.9 | 90 | 1.4 | 997.5 | 0.0 | SW | 0 | 0.0 |
| 20.11.2024 | 00:27 | 2.9 | 90 | 1.4 | 997.5 | 0.0 | NW | 0 | 0.0 |
| 20.11.2024 | 00:33 | 2.8 | 90 | 1.3 | 997.8 | 1.4 | NNW | 0 | 0.0 |
| 20.11.2024 | 00:39 | 2.7 | 90 | 1.2 | 997.9 | 1.4 | NNO | 0 | 0.0 |
| 20.11.2024 | 00:42 | 2.7 | 90 | 1.2 | 998.0 | 1.4 | NNO | 0 | 0.0 |
| 20.11.2024 | 00:49 | 2.8 | 90 | 1.3 | 998.1 | 1.4 | N | 0 | 0.0 |
| 20.11.2024 | 00:54 | 2.7 | 90 | 1.2 | 998.2 | 1.4 | N | 0 | 0.0 |
| 20.11.2024 | 00:57 | 2.8 | 90 | 1.3 | 998.2 | 1.4 | N | 0 | 0.0 |
| 20.11.2024 | 01:03 | 2.7 | 90 | 1.2 | 998.4 | 1.4 | SSW | 0 | 0.0 |
| 20.11.2024 | 01:09 | 2.6 | 90 | 1.1 | 998.6 | 1.4 | NNW | 0 | 0.0 |
| 20.11.2024 | 01:12 | 2.6 | 90 | 1.1 | 998.6 | 1.4 | SSO | 0 | 0.0 |
| 20.11.2024 | 01:18 | 2.6 | 90 | 1.1 | 998.8 | 0.0 | NNO | 0 | 0.0 |
| 20.11.2024 | 01:24 | 2.4 | 90 | 0.9 | 998.8 | 1.4 | N | 0 | 0.0 |
| 20.11.2024 | 01:27 | 2.4 | 90 | 0.9 | 999.1 | 1.4 | NNO | 0 | 0.0 |
| 20.11.2024 | 01:33 | 2.3 | 90 | 0.8 | 999.2 | 1.4 | N | 0 | 0.0 |
| 20.11.2024 | 01:39 | 2.2 | 90 | 0.7 | 999.3 | 1.4 | NNO | 0 | 0.0 |
| 20.11.2024 | 01:42 | 2.2 | 90 | 0.7 | 999.3 | 1.4 | NO | 0 | 0.0 |
| 20.11.2024 | 01:48 | 2.1 | 90 | 0.6 | 999.5 | 0.0 | NO | 0 | 0.0 |
| 20.11.2024 | 01:54 | 2.0 | 90 | 0.5 | 999.7 | 1.4 | SW | 0 | 0.0 |
| 20.11.2024 | 01:57 | 1.9 | 90 | 0.4 | 999.8 | 1.4 | W | 0 | 0.0 |
| 20.11.2024 | 02:03 | 1.8 | 90 | 0.3 | 999.8 | 1.4 | WNW | 0 | 0.0 |
| 20.11.2024 | 02:09 | 1.7 | 90 | 0.2 | 999.9 | 1.4 | S | 0 | 0.0 |
| 20.11.2024 | 02:12 | 1.7 | 90 | 0.2 | 1000.0 | 1.4 | S | 0 | 0.0 |
| 20.11.2024 | 02:18 | 1.6 | 90 | 0.1 | 1000.2 | 0.0 | SW | 0 | 0.0 |
| 20.11.2024 | 02:24 | 1.6 | 90 | 0.1 | 1000.3 | 0.0 | SSW | 0 | 0.0 |
| 20.11.2024 | 02:27 | 1.5 | 90 | 0.0 | 1000.3 | 1.4 | SSW | 0 | 0.0 |
| 20.11.2024 | 02:33 | 1.4 | 90 | -0.1 | 1000.5 | 1.4 | SSW | 0 | 0.0 |
| 20.11.2024 | 02:39 | 1.3 | 90 | -0.2 | 1000.6 | 1.4 | SSW | 0 | 0.0 |
| 20.11.2024 | 02:42 | 1.3 | 90 | -0.2 | 1000.7 | 1.4 | S | 0 | 0.0 |
| 20.11.2024 | 02:49 | 1.2 | 90 | -0.3 | 1001.0 | 1.4 | S | 0 | 0.0 |
| 20.11.2024 | 02:54 | 1.2 | 90 | -0.3 | 1001.1 | 1.4 | WSW | 0 | 0.0 |
| 20.11.2024 | 02:57 | 1.2 | 90 | -0.3 | 1001.0 | 1.4 | SSO | 0 | 0.0 |
| 20.11.2024 | 03:03 | 1.1 | 90 | -0.4 | 1001.1 | 0.0 | SSO | 0 | 0.0 |
| 20.11.2024 | 03:09 | 1.1 | 90 | -0.4 | 1001.2 | 0.0 | S | 0 | 0.2 |
| 20.11.2024 | 03:12 | 1.1 | 90 | -0.4 | 1001.3 | 0.0 | S | 0 | 0.2 |
| 20.11.2024 | 03:18 | 1.1 | 90 | -0.4 | 1001.5 | 0.0 | S | 0 | 0.2 |
| 20.11.2024 | 03:24 | 1.1 | 90 | -0.4 | 1001.5 | 1.4 | SSW | 0 | 0.2 |
| 20.11.2024 | 03:27 | 1.2 | 90 | -0.3 | 1001.6 | 1.4 | SW | 0 | 0.2 |
| 20.11.2024 | 03:33 | 1.2 | 90 | -0.3 | 1001.9 | 0.0 | SW | 0 | 0.2 |
| 20.11.2024 | 03:39 | 1.3 | 90 | -0.2 | 1001.8 | 0.0 | WNW | 0 | 0.2 |
| 20.11.2024 | 03:42 | 1.3 | 90 | -0.2 | 1001.9 | 0.0 | SW | 0 | 0.2 |
| 20.11.2024 | 03:48 | 1.4 | 90 | -0.1 | 1002.0 | 1.4 | SSW | 0 | 0.2 |
| 20.11.2024 | 03:54 | 1.5 | 90 | 0.0 | 1002.0 | 1.4 | SSO | 0 | 0.2 |
| 20.11.2024 | 03:57 | 1.5 | 90 | 0.0 | 1002.0 | 3.2 | SSW | 0 | 0.2 |
| 20.11.2024 | 04:03 | 1.5 | 90 | 0.0 | 1002.1 | 3.2 | S | 0 | 0.2 |
| 20.11.2024 | 04:09 | 1.5 | 90 | 0.0 | 1002.2 | 1.4 | SSO | 0 | 0.2 |
| 20.11.2024 | 04:12 | 1.5 | 90 | 0.0 | 1002.2 | 1.4 | SSO | 0 | 0.2 |
| 20.11.2024 | 04:18 | 1.5 | 90 | 0.0 | 1002.5 | 1.4 | SSO | 0 | 0.2 |
| 20.11.2024 | 04:24 | 1.6 | 90 | 0.1 | 1002.5 | 1.4 | SSO | 0 | 0.2 |
| 20.11.2024 | 04:27 | 1.6 | 90 | 0.1 | 1002.5 | 1.4 | SSW | 0 | 0.2 |
| 20.11.2024 | 04:33 | 1.6 | 90 | 0.1 | 1002.5 | 1.4 | SSO | 0 | 0.2 |
| 20.11.2024 | 04:39 | 1.6 | 90 | 0.1 | 1002.6 | 1.4 | SSO | 0 | 0.2 |
| 20.11.2024 | 04:42 | 1.7 | 90 | 0.2 | 1002.6 | 1.4 | SSO | 0 | 0.2 |
| 20.11.2024 | 04:48 | 1.7 | 90 | 0.2 | 1002.6 | 1.4 | SSW | 0 | 0.2 |
| 20.11.2024 | 04:54 | 1.7 | 90 | 0.2 | 1002.8 | 1.4 | SSO | 0 | 0.2 |
| 20.11.2024 | 04:57 | 1.7 | 90 | 0.2 | 1002.9 | 3.2 | SO | 0 | 0.2 |
| 20.11.2024 | 05:03 | 1.7 | 90 | 0.2 | 1003.0 | 3.2 | SSO | 0 | 0.2 |
| 20.11.2024 | 05:09 | 1.7 | 90 | 0.2 | 1003.1 | 3.2 | SSO | 0 | 0.2 |
| 20.11.2024 | 05:12 | 1.7 | 90 | 0.2 | 1003.2 | 1.4 | SSO | 0 | 0.2 |
| 20.11.2024 | 05:18 | 1.8 | 90 | 0.3 | 1003.3 | 1.4 | SSO | 0 | 0.2 |
| 20.11.2024 | 05:24 | 1.8 | 90 | 0.3 | 1003.4 | 1.4 | SSO | 0 | 0.2 |
| 20.11.2024 | 05:27 | 1.8 | 90 | 0.3 | 1003.4 | 1.4 | SSO | 0 | 0.2 |
| 20.11.2024 | 05:33 | 1.8 | 90 | 0.3 | 1003.4 | 1.4 | SSO | 0 | 0.2 |
| 20.11.2024 | 05:39 | 1.8 | 90 | 0.3 | 1003.6 | 1.4 | SSO | 0 | 0.2 |
| 20.11.2024 | 05:42 | 1.9 | 90 | 0.4 | 1003.7 | 1.4 | S | 0 | 0.2 |
| 20.11.2024 | 05:48 | 1.9 | 90 | 0.4 | 1003.7 | 1.4 | SSO | 0 | 0.2 |
| 20.11.2024 | 05:54 | 1.9 | 90 | 0.4 | 1003.8 | 1.4 | SSW | 0 | 0.2 |
| 20.11.2024 | 05:57 | 1.8 | 90 | 0.3 | 1003.9 | 1.4 | SSW | 0 | 0.2 |
| 20.11.2024 | 06:03 | 1.7 | 90 | 0.2 | 1004.1 | 1.4 | SSO | 0 | 0.2 |
| 20.11.2024 | 06:09 | 1.8 | 90 | 0.3 | 1004.2 | 1.4 | SW | 0 | 0.2 |
| 20.11.2024 | 06:12 | 1.8 | 90 | 0.3 | 1004.3 | 1.4 | S | 0 | 0.2 |
| 20.11.2024 | 06:15 | 1.9 | 90 | 0.4 | 1004.2 | 1.4 | SO | 0 | 0.2 |
| 20.11.2024 | 06:24 | 2.1 | 90 | 0.6 | 1004.3 | 3.2 | SSO | 0 | 0.2 |
| 20.11.2024 | 06:27 | 2.2 | 90 | 0.7 | 1004.3 | 3.2 | SSO | 0 | 0.2 |
| 20.11.2024 | 06:33 | 2.3 | 90 | 0.8 | 1004.4 | 3.2 | NNO | 0 | 0.2 |
| 20.11.2024 | 06:39 | 2.2 | 90 | 0.7 | 1004.5 | 3.2 | SSO | 0 | 0.2 |
| 20.11.2024 | 06:42 | 2.1 | 90 | 0.6 | 1004.5 | 3.2 | ONO | 0 | 0.2 |
| 20.11.2024 | 06:48 | 1.8 | 90 | 0.3 | 1004.6 | 3.2 | NNO | 0 | 0.2 |
| 20.11.2024 | 06:54 | 1.7 | 90 | 0.2 | 1004.6 | 3.2 | SSO | 0 | 0.2 |
| 20.11.2024 | 06:57 | 1.7 | 90 | 0.2 | 1004.6 | 1.4 | S | 0 | 0.2 |
| 20.11.2024 | 07:03 | 1.8 | 90 | 0.3 | 1004.5 | 1.4 | SSW | 0 | 0.2 |
| 20.11.2024 | 07:09 | 1.7 | 90 | 0.2 | 1004.6 | 3.2 | S | 0 | 0.2 |
| 20.11.2024 | 07:12 | 1.7 | 90 | 0.2 | 1004.8 | 3.2 | SSW | 0 | 0.2 |
| 20.11.2024 | 07:18 | 1.6 | 90 | 0.1 | 1004.7 | 3.2 | SW | 0 | 0.2 |
| 20.11.2024 | 07:24 | 1.4 | 90 | -0.1 | 1004.8 | 3.2 | SSW | 0 | 0.2 |
| 20.11.2024 | 07:27 | 1.4 | 90 | -0.1 | 1004.9 | 3.2 | S | 0 | 0.2 |
| 20.11.2024 | 07:33 | 1.3 | 90 | -0.2 | 1005.0 | 3.2 | SSO | 0 | 0.2 |
| 20.11.2024 | 07:39 | 1.3 | 90 | -0.2 | 1005.1 | 3.2 | SSO | 0 | 0.2 |
| 20.11.2024 | 07:42 | 1.3 | 90 | -0.2 | 1005.0 | 3.2 | S | 0 | 0.2 |
| 20.11.2024 | 07:48 | 1.3 | 90 | -0.2 | 1005.0 | 3.2 | SSO | 0 | 0.2 |
| 20.11.2024 | 07:54 | 1.2 | 90 | -0.3 | 1005.1 | 4.7 | SSO | 0 | 0.2 |
| 20.11.2024 | 07:57 | 1.2 | 90 | -0.3 | 1005.2 | 4.7 | SSO | 0 | 0.2 |
| 20.11.2024 | 08:03 | 1.2 | 90 | -0.3 | 1005.5 | 3.2 | S | 0 | 0.2 |
| 20.11.2024 | 08:09 | 1.1 | 90 | -0.4 | 1005.6 | 4.7 | SO | 7 | 0.2 |
| 20.11.2024 | 08:12 | 1.2 | 90 | -0.3 | 1005.6 | 4.7 | SO | 11 | 0.2 |
| 20.11.2024 | 08:18 | 1.1 | 90 | -0.4 | 1005.7 | 6.5 | SSO | 11 | 0.2 |
| 20.11.2024 | 08:24 | 1.2 | 90 | -0.3 | 1005.7 | 6.5 | SO | 19 | 0.2 |
| 20.11.2024 | 08:27 | 1.2 | 90 | -0.3 | 1005.8 | 4.7 | SSO | 18 | 0.2 |
| 20.11.2024 | 08:33 | 1.2 | 90 | -0.3 | 1005.9 | 4.7 | SSO | 18 | 0.2 |
| 20.11.2024 | 08:39 | 1.2 | 90 | -0.3 | 1006.0 | 4.7 | SO | 28 | 0.2 |
| 20.11.2024 | 08:42 | 1.2 | 90 | -0.3 | 1006.0 | 4.7 | SSO | 30 | 0.2 |
| 20.11.2024 | 08:48 | 1.3 | 90 | -0.2 | 1006.0 | 4.7 | SSO | 26 | 0.2 |
| 20.11.2024 | 08:54 | 1.3 | 90 | -0.2 | 1006.1 | 4.7 | SO | 28 | 0.2 |
| 20.11.2024 | 08:57 | 1.3 | 90 | -0.2 | 1006.0 | 4.7 | SO | 40 | 0.2 |
| 20.11.2024 | 09:03 | 1.3 | 90 | -0.2 | 1006.1 | 4.7 | S | 39 | 0.2 |
| 20.11.2024 | 09:09 | 1.3 | 90 | -0.2 | 1006.1 | 4.7 | SSO | 63 | 0.2 |
| 20.11.2024 | 09:12 | 1.3 | 90 | -0.2 | 1006.1 | 6.5 | SO | 63 | 0.2 |
| 20.11.2024 | 09:18 | 1.3 | 90 | -0.2 | 1006.2 | 7.9 | SW | 76 | 0.2 |
| 20.11.2024 | 09:24 | 1.2 | 89 | -0.4 | 1006.2 | 6.5 | SSO | 74 | 0.2 |
| 20.11.2024 | 09:27 | 1.2 | 89 | -0.4 | 1006.3 | 6.5 | SSO | 53 | 0.2 |
| 20.11.2024 | 09:33 | 1.3 | 89 | -0.3 | 1006.3 | 4.7 | SSW | 81 | 0.2 |
| 20.11.2024 | 09:39 | 1.3 | 89 | -0.3 | 1006.6 | 4.7 | SO | 81 | 0.2 |
| 20.11.2024 | 09:42 | 1.4 | 89 | -0.2 | 1006.7 | 4.7 | S | 102 | 0.2 |
| 20.11.2024 | 09:48 | 1.4 | 89 | -0.2 | 1006.8 | 4.7 | S | 74 | 0.2 |
| 20.11.2024 | 09:54 | 1.5 | 88 | -0.3 | 1006.9 | 6.5 | NO | 81 | 0.2 |
| 20.11.2024 | 09:57 | 1.5 | 88 | -0.3 | 1006.8 | 6.5 | SO | 111 | 0.2 |
| 20.11.2024 | 10:03 | 1.6 | 88 | -0.2 | 1006.8 | 6.5 | SSO | 100 | 0.2 |
| 20.11.2024 | 10:09 | 1.6 | 88 | -0.2 | 1006.9 | 6.5 | SSO | 213 | 0.2 |
| 20.11.2024 | 10:12 | 1.6 | 87 | -0.3 | 1006.8 | 4.7 | SO | 149 | 0.2 |
| 20.11.2024 | 10:18 | 1.7 | 87 | -0.2 | 1006.8 | 4.7 | SSO | 278 | 0.2 |
| 20.11.2024 | 10:24 | 1.8 | 87 | -0.1 | 1006.8 | 7.9 | SO | 290 | 0.2 |
| 20.11.2024 | 10:27 | 1.8 | 87 | -0.1 | 1006.8 | 7.9 | SSW | 258 | 0.2 |
| 20.11.2024 | 10:33 | 1.9 | 86 | -0.2 | 1006.9 | 7.9 | SSW | 255 | 0.2 |
| 20.11.2024 | 10:39 | 2.0 | 86 | -0.1 | 1007.0 | 7.9 | SO | 246 | 0.2 |
| 20.11.2024 | 10:42 | 2.0 | 86 | -0.1 | 1007.0 | 6.5 | SSO | 265 | 0.2 |
| 20.11.2024 | 10:48 | 2.0 | 85 | -0.3 | 1006.9 | 7.9 | SO | 250 | 0.2 |
| 20.11.2024 | 10:54 | 2.0 | 85 | -0.3 | 1006.9 | 9.7 | S | 258 | 0.2 |
| 20.11.2024 | 10:57 | 2.1 | 85 | -0.2 | 1006.9 | 7.9 | SO | 264 | 0.2 |
| 20.11.2024 | 11:03 | 2.1 | 84 | -0.3 | 1007.0 | 7.9 | SO | 276 | 0.2 |
| 20.11.2024 | 11:09 | 2.2 | 84 | -0.2 | 1007.0 | 7.9 | SO | 309 | 0.2 |
| 20.11.2024 | 11:12 | 2.3 | 84 | -0.1 | 1007.0 | 7.9 | SSW | 330 | 0.2 |
| 20.11.2024 | 11:18 | 2.6 | 84 | 0.2 | 1006.9 | 6.5 | OSO | 325 | 0.2 |
| 20.11.2024 | 11:24 | 2.5 | 83 | -0.1 | 1007.2 | 7.9 | S | 91 | 0.2 |
| 20.11.2024 | 11:27 | 2.4 | 83 | -0.2 | 1007.1 | 7.9 | S | 165 | 0.2 |
| 20.11.2024 | 11:33 | 2.3 | 82 | -0.5 | 1007.1 | 7.9 | SO | 141 | 0.2 |
| 20.11.2024 | 11:39 | 2.3 | 83 | -0.3 | 1007.1 | 7.9 | SO | 104 | 0.2 |
| 20.11.2024 | 11:42 | 2.4 | 83 | -0.2 | 1007.2 | 6.5 | SO | 139 | 0.2 |
| 20.11.2024 | 11:48 | 2.3 | 83 | -0.3 | 1007.2 | 6.5 | OSO | 98 | 0.2 |
| 20.11.2024 | 11:54 | 2.2 | 83 | -0.4 | 1007.2 | 7.9 | O | 76 | 0.2 |
| 20.11.2024 | 11:57 | 2.2 | 83 | -0.4 | 1007.1 | 7.9 | SO | 114 | 0.2 |
| 20.11.2024 | 12:03 | 2.1 | 83 | -0.5 | 1007.1 | 6.5 | OSO | 171 | 0.2 |
| 20.11.2024 | 12:09 | 2.3 | 83 | -0.3 | 1007.1 | 6.5 | SO | 186 | 0.2 |
| 20.11.2024 | 12:12 | 2.3 | 83 | -0.3 | 1007.1 | 7.9 | SO | 134 | 0.2 |
| 20.11.2024 | 12:18 | 2.4 | 82 | -0.4 | 1007.1 | 6.5 | SO | 120 | 0.2 |
| 20.11.2024 | 12:24 | 2.6 | 82 | -0.2 | 1007.0 | 4.7 | SO | 183 | 0.2 |
| 20.11.2024 | 12:27 | 2.6 | 82 | -0.2 | 1007.1 | 4.7 | SSO | 332 | 0.2 |
| 20.11.2024 | 12:33 | 2.7 | 81 | -0.2 | 1007.0 | 7.9 | SO | 309 | 0.2 |
| 20.11.2024 | 12:39 | 2.7 | 80 | -0.4 | 1007.0 | 11.2 | OSO | 302 | 0.2 |
| 20.11.2024 | 12:42 | 2.8 | 81 | -0.1 | 1006.9 | 9.7 | SO | 86 | 0.2 |
| 20.11.2024 | 12:48 | 2.6 | 81 | -0.3 | 1007.0 | 7.9 | SO | 130 | 0.2 |
| 20.11.2024 | 12:54 | 2.6 | 81 | -0.3 | 1007.1 | 7.9 | SSW | 153 | 0.2 |
| 20.11.2024 | 12:57 | 2.6 | 82 | -0.2 | 1007.1 | 7.9 | SSO | 156 | 0.2 |
| 20.11.2024 | 13:03 | 2.6 | 81 | -0.3 | 1007.0 | 7.9 | O | 297 | 0.2 |
| 20.11.2024 | 13:09 | 2.8 | 81 | -0.1 | 1007.0 | 9.7 | SO | 341 | 0.2 |
| 20.11.2024 | 13:12 | 2.8 | 80 | -0.3 | 1007.0 | 7.9 | NNO | 107 | 0.2 |
| 20.11.2024 | 13:18 | 2.9 | 79 | -0.4 | 1007.0 | 7.9 | SO | 86 | 0.2 |
| 20.11.2024 | 13:24 | 2.9 | 78 | -0.6 | 1007.1 | 7.9 | OSO | 88 | 0.2 |
| 20.11.2024 | 13:27 | 2.9 | 79 | -0.4 | 1007.1 | 7.9 | S | 132 | 0.2 |
| 20.11.2024 | 13:33 | 3.1 | 79 | -0.2 | 1006.9 | 7.9 | SO | 114 | 0.2 |
| 20.11.2024 | 13:39 | 3.1 | 78 | -0.4 | 1006.9 | 6.5 | SO | 77 | 0.2 |
| 20.11.2024 | 13:42 | 3.0 | 78 | -0.5 | 1006.9 | 6.5 | SO | 65 | 0.2 |
| 20.11.2024 | 13:48 | 2.9 | 78 | -0.6 | 1006.9 | 6.5 | SO | 125 | 0.2 |
| 20.11.2024 | 13:54 | 3.2 | 79 | -0.1 | 1007.0 | 3.2 | SSO | 113 | 0.2 |
| 20.11.2024 | 13:57 | 3.2 | 78 | -0.3 | 1006.9 | 4.7 | SO | 109 | 0.2 |
| 20.11.2024 | 14:03 | 3.2 | 79 | -0.1 | 1006.9 | 6.5 | SO | 98 | 0.2 |
| 20.11.2024 | 14:09 | 3.3 | 79 | 0.0 | 1006.8 | 6.5 | OSO | 91 | 0.2 |
| 20.11.2024 | 14:12 | 3.3 | 78 | -0.2 | 1006.9 | 6.5 | SO | 40 | 0.2 |
| 20.11.2024 | 14:18 | 3.3 | 79 | 0.0 | 1006.9 | 6.5 | SO | 86 | 0.2 |
| 20.11.2024 | 14:24 | 3.1 | 78 | -0.4 | 1007.0 | 6.5 | SO | 54 | 0.2 |
| 20.11.2024 | 14:27 | 3.1 | 79 | -0.2 | 1007.0 | 6.5 | OSO | 62 | 0.2 |
| 20.11.2024 | 14:33 | 2.9 | 79 | -0.4 | 1007.0 | 6.5 | SO | 74 | 0.2 |
| 20.11.2024 | 14:39 | 2.9 | 79 | -0.4 | 1007.1 | 4.7 | SO | 54 | 0.2 |
| 20.11.2024 | 14:42 | 3.0 | 79 | -0.3 | 1007.1 | 4.7 | SO | 30 | 0.2 |
| 20.11.2024 | 14:48 | 3.0 | 78 | -0.5 | 1007.1 | 6.5 | OSO | 33 | 0.2 |
| 20.11.2024 | 14:54 | 2.9 | 78 | -0.6 | 1007.1 | 6.5 | SSO | 40 | 0.2 |
| 20.11.2024 | 14:57 | 2.9 | 77 | -0.7 | 1007.1 | 6.5 | SO | 47 | 0.2 |
| 20.11.2024 | 15:03 | 2.9 | 78 | -0.6 | 1007.0 | 4.7 | SO | 74 | 0.2 |
| 20.11.2024 | 15:09 | 3.1 | 77 | -0.5 | 1007.2 | 6.5 | ONO | 70 | 0.2 |
| 20.11.2024 | 15:12 | 3.1 | 77 | -0.5 | 1007.2 | 6.5 | SO | 51 | 0.2 |
| 20.11.2024 | 15:18 | 3.1 | 76 | -0.7 | 1007.2 | 4.7 | SO | 32 | 0.2 |
| 20.11.2024 | 15:24 | 3.0 | 77 | -0.6 | 1007.2 | 4.7 | SO | 21 | 0.2 |
| 20.11.2024 | 15:27 | 3.0 | 77 | -0.6 | 1007.2 | 4.7 | WNW | 23 | 0.2 |
| 20.11.2024 | 15:33 | 2.9 | 78 | -0.6 | 1007.2 | 4.7 | SO | 72 | 0.2 |
| 20.11.2024 | 15:39 | 3.1 | 78 | -0.4 | 1007.2 | 6.5 | W | 102 | 0.2 |
| 20.11.2024 | 15:42 | 3.0 | 78 | -0.5 | 1007.3 | 6.5 | S | 86 | 0.2 |
| 20.11.2024 | 15:49 | 3.0 | 77 | -0.6 | 1007.3 | 7.9 | SO | 81 | 0.2 |
| 20.11.2024 | 15:54 | 3.0 | 76 | -0.8 | 1007.2 | 7.9 | SO | 62 | 0.2 |
| 20.11.2024 | 15:57 | 3.0 | 76 | -0.8 | 1007.2 | 6.5 | SO | 65 | 0.2 |
| 20.11.2024 | 16:03 | 2.9 | 76 | -0.9 | 1007.3 | 7.9 | SSO | 30 | 0.2 |
| 20.11.2024 | 16:09 | 2.9 | 77 | -0.7 | 1007.3 | 6.5 | SO | 30 | 0.2 |
| 20.11.2024 | 16:12 | 2.9 | 77 | -0.7 | 1007.3 | 7.9 | SO | 28 | 0.2 |
| 20.11.2024 | 16:18 | 2.8 | 77 | -0.8 | 1007.3 | 6.5 | SSO | 21 | 0.2 |
| 20.11.2024 | 16:24 | 2.8 | 78 | -0.7 | 1007.4 | 4.7 | SSO | 9 | 0.2 |
| 20.11.2024 | 16:27 | 2.8 | 78 | -0.7 | 1007.3 | 4.7 | SO | 7 | 0.2 |
| 20.11.2024 | 16:33 | 2.8 | 79 | -0.5 | 1007.3 | 6.5 | SO | 5 | 0.2 |
| 20.11.2024 | 16:39 | 2.7 | 80 | -0.4 | 1007.3 | 4.7 | SSO | 0 | 0.2 |
| 20.11.2024 | 16:42 | 2.6 | 81 | -0.3 | 1007.4 | 4.7 | S | 0 | 0.2 |
| 20.11.2024 | 16:48 | 2.5 | 81 | -0.4 | 1007.3 | 3.2 | S | 0 | 0.2 |
| 20.11.2024 | 16:54 | 2.4 | 82 | -0.4 | 1007.5 | 3.2 | SO | 0 | 0.2 |
| 20.11.2024 | 16:57 | 2.3 | 82 | -0.5 | 1007.6 | 3.2 | SSO | 0 | 0.2 |
| 20.11.2024 | 17:03 | 2.3 | 83 | -0.3 | 1007.6 | 4.7 | S | 0 | 0.2 |
| 20.11.2024 | 17:09 | 2.2 | 83 | -0.4 | 1007.6 | 4.7 | SSO | 0 | 0.2 |
| 20.11.2024 | 17:12 | 2.2 | 83 | -0.4 | 1007.6 | 4.7 | OSO | 0 | 0.2 |
| 20.11.2024 | 17:18 | 2.2 | 84 | -0.2 | 1007.6 | 6.5 | SSO | 0 | 0.2 |
| 20.11.2024 | 17:24 | 2.1 | 84 | -0.3 | 1007.4 | 6.5 | SSO | 0 | 0.2 |
| 20.11.2024 | 17:27 | 2.1 | 84 | -0.3 | 1007.5 | 6.5 | SSO | 0 | 0.2 |
| 20.11.2024 | 17:33 | 2.0 | 84 | -0.4 | 1007.5 | 3.2 | S | 0 | 0.2 |
| 20.11.2024 | 17:39 | 1.8 | 84 | -0.6 | 1007.3 | 3.2 | S | 0 | 0.2 |
| 20.11.2024 | 17:42 | 1.8 | 84 | -0.6 | 1007.2 | 3.2 | SSO | 0 | 0.2 |
| 20.11.2024 | 17:48 | 1.7 | 85 | -0.6 | 1007.3 | 3.2 | WSW | 0 | 0.2 |
| 20.11.2024 | 17:54 | 1.4 | 85 | -0.8 | 1007.2 | 3.2 | SSO | 0 | 0.2 |
| 20.11.2024 | 17:57 | 1.4 | 86 | -0.7 | 1007.3 | 3.2 | SSO | 0 | 0.2 |
| 20.11.2024 | 18:03 | 1.3 | 86 | -0.8 | 1007.3 | 3.2 | S | 0 | 0.2 |
| 20.11.2024 | 18:09 | 1.2 | 87 | -0.7 | 1007.4 | 3.2 | S | 0 | 0.2 |
| 20.11.2024 | 18:12 | 1.1 | 86 | -1.0 | 1007.4 | 3.2 | S | 0 | 0.2 |
| 20.11.2024 | 18:18 | 1.0 | 87 | -0.9 | 1007.3 | 3.2 | S | 0 | 0.2 |
| 20.11.2024 | 18:24 | 0.9 | 87 | -1.0 | 1007.4 | 3.2 | SSW | 0 | 0.2 |
| 20.11.2024 | 18:27 | 0.9 | 87 | -1.0 | 1007.4 | 3.2 | S | 0 | 0.2 |
| 20.11.2024 | 18:33 | 0.8 | 88 | -1.0 | 1007.5 | 3.2 | S | 0 | 0.2 |
| 20.11.2024 | 18:39 | 0.8 | 88 | -1.0 | 1007.3 | 3.2 | SO | 0 | 0.2 |
| 20.11.2024 | 18:42 | 0.8 | 88 | -1.0 | 1007.2 | 3.2 | S | 0 | 0.2 |
| 20.11.2024 | 18:48 | 0.7 | 88 | -1.1 | 1007.3 | 3.2 | S | 0 | 0.2 |
| 20.11.2024 | 18:54 | 0.7 | 88 | -1.1 | 1007.3 | 3.2 | SSO | 0 | 0.2 |
| 20.11.2024 | 18:57 | 0.6 | 88 | -1.2 | 1007.3 | 3.2 | SSW | 0 | 0.2 |
| 20.11.2024 | 19:03 | 0.6 | 88 | -1.2 | 1007.3 | 3.2 | SSO | 0 | 0.2 |
| 20.11.2024 | 19:09 | 0.6 | 88 | -1.2 | 1007.3 | 3.2 | SSO | 0 | 0.2 |
| 20.11.2024 | 19:12 | 0.6 | 88 | -1.2 | 1007.3 | 3.2 | SO | 0 | 0.2 |
| 20.11.2024 | 19:18 | 0.6 | 88 | -1.2 | 1007.2 | 4.7 | SSO | 0 | 0.2 |
| 20.11.2024 | 19:24 | 0.7 | 88 | -1.1 | 1007.3 | 3.2 | SSW | 0 | 0.2 |
| 20.11.2024 | 19:27 | 0.6 | 88 | -1.2 | 1007.3 | 3.2 | SSO | 0 | 0.2 |
| 20.11.2024 | 19:33 | 0.6 | 88 | -1.2 | 1007.4 | 3.2 | SO | 0 | 0.2 |
| 20.11.2024 | 19:39 | 0.6 | 88 | -1.2 | 1007.2 | 4.7 | SW | 0 | 0.2 |
| 20.11.2024 | 19:42 | 0.6 | 88 | -1.2 | 1007.3 | 4.7 | SO | 0 | 0.2 |
| 20.11.2024 | 19:48 | 0.6 | 88 | -1.2 | 1007.3 | 3.2 | S | 0 | 0.2 |
| 20.11.2024 | 19:54 | 0.5 | 88 | -1.3 | 1007.5 | 3.2 | W | 0 | 0.2 |
| 20.11.2024 | 19:57 | 0.4 | 88 | -1.4 | 1007.5 | 1.4 | W | 0 | 0.2 |
| 20.11.2024 | 20:03 | 0.3 | 88 | -1.5 | 1007.6 | 0.0 | WSW | 0 | 0.2 |
| 20.11.2024 | 20:09 | 0.4 | 88 | -1.4 | 1007.5 | 1.4 | S | 0 | 0.2 |
| 20.11.2024 | 20:12 | 0.4 | 89 | -1.2 | 1007.4 | 1.4 | S | 0 | 0.2 |
| 20.11.2024 | 20:18 | 0.6 | 89 | -1.0 | 1007.4 | 1.4 | SW | 0 | 0.2 |
| 20.11.2024 | 20:24 | 0.7 | 89 | -0.9 | 1007.2 | 3.2 | SO | 0 | 0.2 |
| 20.11.2024 | 20:27 | 0.8 | 89 | -0.8 | 1007.3 | 3.2 | SSO | 0 | 0.2 |
| 20.11.2024 | 20:33 | 0.7 | 89 | -0.9 | 1007.3 | 3.2 | SSO | 0 | 0.2 |
| 20.11.2024 | 20:39 | 0.6 | 89 | -1.0 | 1007.3 | 1.4 | S | 0 | 0.2 |
| 20.11.2024 | 20:42 | 0.5 | 89 | -1.1 | 1007.3 | 1.4 | S | 0 | 0.2 |
| 20.11.2024 | 20:48 | 0.6 | 89 | -1.0 | 1007.2 | 1.4 | S | 0 | 0.2 |
| 20.11.2024 | 20:54 | 0.6 | 89 | -1.0 | 1007.2 | 3.2 | SSW | 0 | 0.2 |
| 20.11.2024 | 20:57 | 0.6 | 89 | -1.0 | 1007.2 | 3.2 | SW | 0 | 0.2 |
| 20.11.2024 | 21:03 | 0.4 | 89 | -1.2 | 1007.2 | 3.2 | SSO | 0 | 0.2 |
| 20.11.2024 | 21:09 | 0.3 | 89 | -1.3 | 1007.2 | 3.2 | SSO | 0 | 0.2 |
| 20.11.2024 | 21:12 | 0.4 | 89 | -1.2 | 1007.2 | 3.2 | SSO | 0 | 0.2 |
| 20.11.2024 | 21:18 | 0.7 | 89 | -0.9 | 1007.2 | 4.7 | SSO | 0 | 0.2 |
| 20.11.2024 | 21:24 | 0.9 | 89 | -0.7 | 1007.1 | 6.5 | SSO | 0 | 0.2 |
| 20.11.2024 | 21:27 | 0.9 | 89 | -0.7 | 1007.1 | 6.5 | SSW | 0 | 0.2 |
| 20.11.2024 | 21:33 | 1.0 | 88 | -0.8 | 1007.1 | 6.5 | SSO | 0 | 0.2 |
| 20.11.2024 | 21:39 | 1.1 | 88 | -0.7 | 1007.1 | 6.5 | SSO | 0 | 0.2 |
| 20.11.2024 | 21:42 | 1.1 | 87 | -0.8 | 1007.1 | 6.5 | S | 0 | 0.2 |
| 20.11.2024 | 21:48 | 1.1 | 87 | -0.8 | 1007.1 | 7.9 | SO | 0 | 0.2 |
| 20.11.2024 | 21:54 | 1.1 | 86 | -1.0 | 1007.0 | 9.7 | WSW | 0 | 0.2 |
| 20.11.2024 | 21:57 | 1.0 | 86 | -1.1 | 1006.8 | 9.7 | SO | 0 | 0.2 |
| 20.11.2024 | 22:03 | 1.0 | 85 | -1.2 | 1006.9 | 6.5 | SO | 0 | 0.2 |
| 20.11.2024 | 22:09 | 0.9 | 85 | -1.3 | 1006.8 | 7.9 | SSW | 0 | 0.2 |
| 20.11.2024 | 22:12 | 0.9 | 85 | -1.3 | 1006.7 | 7.9 | S | 0 | 0.2 |
| 20.11.2024 | 22:18 | 0.9 | 85 | -1.3 | 1007.0 | 6.5 | SO | 0 | 0.2 |
| 20.11.2024 | 22:24 | 0.9 | 85 | -1.3 | 1007.0 | 7.9 | SO | 0 | 0.2 |
| 20.11.2024 | 22:27 | 0.9 | 85 | -1.3 | 1006.9 | 6.5 | SO | 0 | 0.2 |
| 20.11.2024 | 22:33 | 0.9 | 85 | -1.3 | 1006.7 | 6.5 | SSO | 0 | 0.2 |
| 20.11.2024 | 22:39 | 1.0 | 85 | -1.2 | 1006.6 | 6.5 | SO | 0 | 0.2 |
| 20.11.2024 | 22:42 | 1.0 | 85 | -1.2 | 1006.6 | 6.5 | S | 0 | 0.2 |
| 20.11.2024 | 22:49 | 1.1 | 85 | -1.1 | 1006.6 | 6.5 | SSW | 0 | 0.2 |
| 20.11.2024 | 22:54 | 1.1 | 85 | -1.1 | 1006.6 | 6.5 | SO | 0 | 0.2 |
| 20.11.2024 | 22:57 | 1.1 | 86 | -1.0 | 1006.6 | 6.5 | SSO | 0 | 0.2 |
| 20.11.2024 | 23:03 | 1.1 | 86 | -1.0 | 1006.6 | 6.5 | O | 0 | 0.2 |
| 20.11.2024 | 23:09 | 1.0 | 87 | -0.9 | 1006.7 | 6.5 | S | 0 | 0.2 |
| 20.11.2024 | 23:12 | 0.9 | 87 | -1.0 | 1006.7 | 6.5 | SO | 0 | 0.2 |
| 20.11.2024 | 23:19 | 0.8 | 88 | -1.0 | 1006.6 | 6.5 | SSO | 0 | 0.2 |
| 20.11.2024 | 23:24 | 0.8 | 88 | -1.0 | 1006.7 | 7.9 | SSO | 0 | 0.2 |
| 20.11.2024 | 23:27 | 0.7 | 88 | -1.1 | 1006.7 | 7.9 | S | 0 | 0.2 |
| 20.11.2024 | 23:33 | 0.6 | 89 | -1.0 | 1006.6 | 9.7 | WSW | 0 | 0.2 |
| 20.11.2024 | 23:39 | 0.6 | 89 | -1.0 | 1006.7 | 7.9 | SSW | 0 | 0.2 |
| 20.11.2024 | 23:42 | 0.6 | 89 | -1.0 | 1006.7 | 7.9 | W | 0 | 0.2 |
| 20.11.2024 | 23:48 | 0.5 | 89 | -1.1 | 1006.8 | 7.9 | SSO | 0 | 0.2 |
| 20.11.2024 | 23:54 | 0.5 | 89 | -1.1 | 1006.8 | 7.9 | WSW | 0 | 0.2 |
| 20.11.2024 | 23:57 | 0.5 | 89 | -1.1 | 1006.8 | 7.9 | SO | 0 | 0.2 |